Orbital elements of FENGYUN 1C DEB
| Launched | 9 May 1999 |
| Flight ended | – |
| Launch site | Taiyuan Space Center, PRC |
| Owner | People's Republic of China |
| NORAD ID | 29849 |
| Date fetched |
Epoch osculation |
Inc. [°] |
Ecc. | RA asc node [hr] |
Arg Peri. [°] |
Mean anom [°] |
Mean motion [rev/day] |
Abs. mag |
| Date fetched |
Epoch osculation |
Inc. [°] |
Ecc. | RA asc node [hr] |
Arg Peri. [°] |
Mean anom [°] |
Mean motion [rev/day] |
Abs. mag |
| 2026 May 06 17:57 | 2026 May 05 04:52:09 | 99.0012 | 0.00795 | 14.2379 | 5.3532 | 23.3909 | 14.05411 | – |
| 2026 May 05 17:57 | 2026 May 05 04:52:09 | 99.0012 | 0.00795 | 14.2379 | 5.3532 | 23.3909 | 14.05411 | – |
| 2026 May 04 17:57 | 2026 Apr 30 05:15:33 | 99.0011 | 0.00799 | 13.9079 | 19.4498 | 23.3909 | 14.05411 | – |
| 2026 May 03 17:57 | 2026 Apr 30 05:15:33 | 99.0011 | 0.00799 | 13.9079 | 19.4498 | 23.3909 | 14.05411 | – |
| 2026 May 02 17:57 | 2026 Apr 30 05:15:33 | 99.0011 | 0.00799 | 13.9079 | 19.4498 | 23.3909 | 14.05411 | – |
| 2026 May 01 17:56 | 2026 Apr 30 05:15:33 | 99.0011 | 0.00799 | 13.9079 | 19.4498 | 23.3909 | 14.05411 | – |
| 2026 Apr 30 17:56 | 2026 Apr 30 05:15:33 | 99.0011 | 0.00799 | 13.9079 | 19.4498 | 23.3909 | 14.05411 | – |
| 2026 Apr 29 17:57 | 2026 Apr 24 04:12:29 | 99.0011 | 0.00804 | 13.5079 | 36.3959 | 23.3909 | 14.05411 | – |
| 2026 Apr 28 17:56 | 2026 Apr 24 04:12:29 | 99.0011 | 0.00804 | 13.5079 | 36.3959 | 23.3909 | 14.05411 | – |
| 2026 Apr 27 17:58 | 2026 Apr 24 04:12:29 | 99.0011 | 0.00804 | 13.5079 | 36.3959 | 23.3909 | 14.05411 | – |
| 2026 Apr 26 17:58 | 2026 Apr 24 04:12:29 | 99.0011 | 0.00804 | 13.5079 | 36.3959 | 23.3909 | 14.05411 | – |
| 2026 Apr 25 17:58 | 2026 Apr 24 04:12:29 | 99.0011 | 0.00804 | 13.5079 | 36.3959 | 23.3909 | 14.05411 | – |
| 2026 Apr 24 17:59 | 2026 Apr 24 04:12:29 | 99.0011 | 0.00804 | 13.5079 | 36.3959 | 23.3909 | 14.05411 | – |
| 2026 Apr 23 17:57 | 2026 Apr 19 04:25:46 | 99.0006 | 0.00808 | 13.1775 | 50.3247 | 23.3909 | 14.05411 | – |
| 2026 Apr 22 17:57 | 2026 Apr 19 04:25:46 | 99.0006 | 0.00808 | 13.1775 | 50.3247 | 23.3909 | 14.05411 | – |
| 2026 Apr 21 17:57 | 2026 Apr 19 04:25:46 | 99.0006 | 0.00808 | 13.1775 | 50.3247 | 23.3909 | 14.05411 | – |
| 2026 Apr 20 17:57 | 2026 Apr 19 04:25:46 | 99.0006 | 0.00808 | 13.1775 | 50.3247 | 23.3909 | 14.05411 | – |
| 2026 Apr 19 17:58 | 2026 Apr 19 04:25:46 | 99.0006 | 0.00808 | 13.1775 | 50.3247 | 23.3909 | 14.05411 | – |
| 2026 Apr 18 17:56 | 2026 Apr 13 04:53:49 | 99.0007 | 0.00814 | 12.7817 | 66.9103 | 23.3909 | 14.05411 | – |
| 2026 Apr 16 17:57 | 2026 Apr 13 04:53:49 | 99.0007 | 0.00814 | 12.7817 | 66.9103 | 23.3909 | 14.05411 | – |
| 2026 Apr 14 17:57 | 2026 Apr 13 04:53:49 | 99.0007 | 0.00814 | 12.7817 | 66.9103 | 23.3909 | 14.05411 | – |
| 2026 Apr 13 17:57 | 2026 Apr 13 04:53:49 | 99.0007 | 0.00814 | 12.7817 | 66.9103 | 23.3909 | 14.05411 | – |
| 2026 Apr 12 17:57 | 2026 Apr 08 12:04:15 | 99.0005 | 0.00819 | 12.4705 | 79.8975 | 23.3909 | 14.05411 | – |
| 2026 Apr 11 17:57 | 2026 Apr 08 12:04:15 | 99.0005 | 0.00819 | 12.4705 | 79.8975 | 23.3909 | 14.05411 | – |
| 2026 Apr 10 17:58 | 2026 Apr 08 12:04:15 | 99.0005 | 0.00819 | 12.4705 | 79.8975 | 23.3909 | 14.05411 | – |
| 2026 Apr 09 18:01 | 2026 Apr 08 12:04:15 | 99.0005 | 0.00819 | 12.4705 | 79.8975 | 23.3909 | 14.05411 | – |